Terminal Aerodrome Forecast
Issued by NWS

Home | Current Version | Previous Version | Graphics & Text | Print | Product List | Glossary On
Versions: 1 2 3 4 5 6 7 8 9 10 11 12 13
000
FTUS42 KMHX 261100
TAFOAJ
TAF
KOAJ 261127Z 2612/2712 VRB04KT P6SM BKN100 OVC250
     FM270000 28007KT P6SM -RA OVC040
     FM270300 30010G18KT 6SM -RA BR SCT015 OVC025
     FM271000 33012G20KT 6SM -RASN SCT007 OVC015
      AMD LTD TO CLD VIS AND WIND=

USA.gov is the U.S. government's official web portal to all federal, state and local government web resources and services.